createdAt,value
2022-08-05T00:00:46.444Z,48.36
2022-08-05T00:03:20.577Z,48.60
2022-08-05T00:06:06.562Z,49.89
2022-08-05T00:08:43.261Z,51.16
2022-08-05T00:11:20.697Z,51.49
2022-08-05T00:13:58.862Z,52.12
2022-08-05T00:16:36.510Z,52.49
2022-08-05T00:19:22.174Z,53.10
2022-08-05T00:21:54.099Z,52.47
2022-08-05T00:24:31.155Z,52.75
2022-08-05T00:27:04.813Z,53.26
2022-08-05T00:29:41.083Z,53.72
2022-08-05T00:32:15.306Z,54.26
2022-08-05T00:35:04.825Z,54.13
2022-08-05T00:37:52.361Z,54.17
2022-08-05T00:40:27.878Z,54.29
2022-08-05T00:43:00.668Z,54.33
2022-08-05T00:45:38.970Z,54.38
2022-08-05T00:48:12.465Z,55.04
2022-08-05T00:50:46.025Z,55.28
2022-08-05T00:54:00.679Z,55.82
2022-08-05T00:56:10.128Z,55.92
2022-08-05T00:58:45.020Z,54.80
2022-08-05T01:01:16.368Z,54.75
2022-08-05T01:04:13.869Z,55.54
2022-08-05T01:06:48.594Z,57.63
2022-08-05T01:09:20.398Z,58.61
2022-08-05T01:11:53.988Z,59.44
2022-08-05T01:14:32.132Z,60.07
2022-08-05T01:17:06.129Z,60.16
2022-08-05T01:19:57.219Z,60.02
2022-08-05T01:22:47.015Z,60.47
2022-08-05T01:25:53.120Z,61.34
2022-08-05T01:28:57.683Z,61.80
2022-08-05T01:31:50.237Z,62.51
2022-08-05T01:34:26.874Z,63.08
2022-08-05T01:37:05.097Z,63.53
2022-08-05T01:39:46.004Z,63.97
2022-08-05T01:42:25.996Z,64.55
2022-08-05T01:45:02.344Z,65.14
2022-08-05T01:47:39.288Z,65.36
2022-08-05T01:50:17.461Z,64.76
2022-08-05T01:52:51.130Z,64.32
2022-08-05T01:55:29.540Z,63.39
2022-08-05T01:58:09.705Z,64.37
2022-08-05T02:00:52.305Z,64.39
2022-08-05T02:03:31.963Z,64.33
2022-08-05T02:06:33.538Z,63.62
2022-08-05T02:09:01.392Z,63.15
2022-08-05T02:11:48.170Z,62.92
2022-08-05T02:14:32.257Z,62.86
2022-08-05T02:17:16.863Z,63.40
2022-08-05T02:20:06.301Z,63.41
2022-08-05T02:22:44.496Z,63.51
2022-08-05T02:25:22.380Z,63.95
2022-08-05T02:27:58.900Z,63.57
2022-08-05T02:30:38.273Z,63.96
2022-08-05T02:33:36.152Z,63.48
2022-08-05T02:36:20.928Z,62.92
2022-08-05T02:39:02.058Z,63.07
2022-08-05T02:41:43.394Z,63.14
2022-08-05T02:49:03.922Z,64.88
2022-08-05T02:52:03.806Z,65.94
2022-08-05T03:01:20.835Z,68.83
2022-08-05T03:04:04.262Z,69.28
2022-08-05T03:06:54.658Z,69.44
2022-08-05T03:09:38.325Z,69.99
2022-08-05T03:12:31.815Z,70.49
2022-08-05T03:15:03.129Z,71.14
2022-08-05T03:17:41.701Z,71.55
2022-08-05T03:20:15.531Z,72.12
2022-08-05T03:22:49.886Z,72.53
2022-08-05T03:25:32.402Z,72.73
2022-08-05T03:28:14.059Z,73.50
2022-08-05T03:30:45.242Z,73.60
2022-08-05T03:33:18.776Z,73.79
2022-08-05T03:35:50.329Z,74.18
2022-08-05T03:38:32.807Z,74.36
2022-08-05T03:41:08.422Z,73.61
2022-08-05T03:44:09.534Z,73.53
2022-08-05T03:46:32.750Z,73.61
2022-08-05T03:49:03.287Z,73.93
2022-08-05T03:52:50.546Z,74.16
2022-08-05T03:55:53.093Z,74.40
2022-08-05T03:57:42.612Z,74.20
2022-08-05T04:00:16.694Z,74.54
2022-08-05T04:02:57.872Z,74.65
2022-08-05T04:05:33.719Z,74.65
2022-08-05T04:08:30.015Z,74.80
2022-08-05T04:10:59.416Z,75.16
2022-08-05T04:13:50.071Z,74.75
2022-08-05T04:16:24.969Z,74.87
2022-08-05T04:19:00.699Z,74.81
2022-08-05T04:22:10.401Z,74.57
2022-08-05T04:24:22.583Z,74.88
2022-08-05T04:26:53.298Z,75.35
2022-08-05T04:29:23.816Z,75.33
2022-08-05T04:31:57.642Z,75.47
2022-08-05T04:34:32.365Z,75.72
2022-08-05T04:37:03.919Z,75.70
2022-08-05T04:39:35.726Z,76.01
2022-08-05T04:42:07.442Z,76.28
2022-08-05T04:44:39.791Z,76.30
2022-08-05T04:47:10.709Z,76.27
2022-08-05T04:50:03.098Z,75.94
2022-08-05T04:52:34.123Z,75.23
2022-08-05T04:55:15.045Z,74.97
2022-08-05T04:57:51.554Z,74.44
2022-08-05T05:00:24.999Z,73.58
2022-08-05T05:02:57.316Z,73.18
2022-08-05T05:05:29.678Z,73.09
2022-08-05T05:08:02.726Z,72.70
2022-08-05T05:10:34.761Z,72.96
2022-08-05T05:13:05.088Z,72.94
2022-08-05T05:15:56.422Z,73.47
2022-08-05T05:18:28.774Z,72.15
2022-08-05T05:21:05.522Z,71.31
2022-08-05T05:24:02.064Z,70.56
2022-08-05T05:26:28.825Z,70.63
2022-08-05T05:29:14.243Z,70.62
2022-08-05T05:31:46.467Z,70.73
2022-08-05T05:34:21.152Z,71.57
2022-08-05T05:36:54.573Z,71.39
2022-08-05T05:39:25.049Z,70.86
2022-08-05T05:42:05.364Z,70.42
2022-08-05T05:44:37.727Z,70.46
2022-08-05T05:47:21.532Z,70.71
2022-08-05T05:49:56.736Z,70.21
2022-08-05T05:52:34.558Z,69.89
2022-08-05T05:55:13.581Z,70.44
2022-08-05T05:57:52.550Z,70.90
2022-08-05T06:00:31.398Z,71.14
2022-08-05T06:03:03.310Z,71.09
2022-08-05T06:05:54.301Z,70.88
2022-08-05T06:08:31.556Z,70.34
2022-08-05T06:11:04.058Z,70.50
2022-08-05T06:13:40.839Z,70.82
2022-08-05T06:16:31.647Z,70.97
2022-08-05T06:19:05.811Z,71.14
2022-08-05T06:21:42.331Z,71.20
2022-08-05T06:24:25.634Z,71.08
2022-08-05T06:26:57.888Z,71.12
2022-08-05T06:29:49.699Z,71.38
2022-08-05T06:32:26.330Z,71.41
2022-08-05T06:35:05.793Z,71.63
2022-08-05T06:40:49.442Z,71.26
2022-08-05T06:44:26.172Z,70.94
2022-08-05T06:47:02.305Z,70.55
2022-08-05T06:50:00.553Z,70.88
2022-08-05T06:52:37.204Z,70.99
2022-08-05T06:55:13.412Z,71.37
2022-08-05T06:58:03.259Z,71.27
2022-08-05T07:00:38.169Z,71.05
2022-08-05T07:03:18.721Z,70.98
2022-08-05T07:06:06.033Z,70.48
2022-08-05T07:08:54.684Z,69.22
2022-08-05T07:11:29.185Z,69.26
2022-08-05T07:14:20.414Z,68.47
2022-08-05T07:17:57.244Z,67.42
2022-08-05T07:20:33.085Z,67.74
2022-08-05T07:26:54.673Z,67.99
2022-08-05T07:33:36.904Z,68.51
2022-08-05T07:36:23.571Z,68.27
2022-08-05T07:38:57.023Z,68.19
2022-08-05T07:42:08.762Z,68.06
2022-08-05T07:44:25.541Z,68.44
2022-08-05T07:47:07.821Z,67.95
2022-08-05T07:49:43.483Z,67.57
2022-08-05T07:52:26.431Z,66.45
2022-08-05T07:54:59.140Z,66.12
2022-08-05T07:57:52.224Z,65.66
2022-08-05T08:00:27.055Z,65.04
2022-08-05T08:03:14.173Z,65.19
2022-08-05T08:05:49.775Z,65.12
2022-08-05T08:08:26.038Z,65.14
2022-08-05T08:11:05.356Z,64.80
2022-08-05T08:13:42.923Z,64.83
2022-08-05T08:16:51.175Z,63.68
2022-08-05T08:20:21.204Z,63.73
2022-08-05T08:22:58.272Z,63.03
2022-08-05T08:25:59.794Z,62.35
2022-08-05T08:28:59.464Z,61.60
2022-08-05T08:32:28.098Z,61.05
2022-08-05T08:34:47.631Z,60.89
2022-08-05T08:37:31.780Z,60.18
2022-08-05T08:40:19.863Z,60.26
2022-08-05T08:42:55.142Z,60.07
2022-08-05T08:45:40.762Z,59.48
2022-08-05T08:48:42.921Z,58.38
2022-08-05T08:51:54.554Z,57.81
2022-08-05T08:54:04.666Z,56.34
2022-08-05T08:56:49.549Z,55.36
2022-08-05T08:59:22.960Z,54.63
2022-08-05T09:02:00.929Z,53.78
2022-08-05T09:04:32.854Z,52.70
2022-08-05T09:07:03.357Z,51.10
2022-08-05T09:09:50.219Z,48.30
2022-08-05T09:12:27.334Z,49.05
2022-08-05T09:15:04.797Z,49.96
2022-08-05T09:17:42.313Z,50.17
2022-08-05T09:20:36.663Z,49.31
2022-08-05T09:23:18.502Z,48.98
2022-08-05T09:26:02.659Z,48.80
2022-08-05T09:28:38.397Z,48.98
2022-08-05T09:31:43.136Z,49.10
2022-08-05T09:34:04.619Z,49.31
2022-08-05T09:36:54.526Z,47.86
2022-08-05T09:39:41.538Z,47.54
2022-08-05T09:42:23.898Z,47.30
2022-08-05T09:45:17.216Z,47.43
2022-08-05T09:48:07.898Z,46.75
2022-08-05T09:50:52.560Z,46.59
2022-08-05T09:54:16.218Z,46.35
2022-08-05T09:57:01.454Z,46.30
2022-08-05T10:06:54.600Z,45.53
2022-08-05T10:12:50.435Z,46.33
2022-08-05T10:15:34.209Z,45.91
2022-08-05T10:18:13.461Z,45.99
2022-08-05T10:20:54.866Z,46.44
2022-08-05T10:28:17.048Z,46.63
2022-08-05T10:42:18.619Z,46.89
2022-08-05T10:45:41.627Z,46.79
2022-08-05T10:49:01.546Z,46.86
2022-08-05T10:55:16.109Z,47.10
2022-08-05T10:58:15.620Z,47.29
2022-08-05T11:01:28.407Z,47.86
2022-08-05T11:04:21.332Z,48.02
2022-08-05T11:07:12.376Z,47.98
2022-08-05T11:10:13.253Z,48.20
2022-08-05T11:12:55.159Z,48.31
2022-08-05T11:16:00.642Z,48.31
2022-08-05T11:18:38.283Z,48.04
2022-08-05T11:21:48.824Z,47.94
2022-08-05T11:24:38.809Z,48.27
2022-08-05T11:28:28.964Z,48.01
2022-08-05T11:31:09.215Z,48.23
2022-08-05T11:33:57.532Z,48.00
2022-08-05T11:36:52.926Z,47.84
2022-08-05T11:39:55.528Z,46.91
2022-08-05T11:42:59.518Z,46.26
2022-08-05T11:46:27.241Z,45.91
2022-08-05T11:48:38.474Z,45.15
2022-08-05T11:51:44.631Z,43.75
2022-08-05T11:54:14.072Z,41.93
2022-08-05T11:57:07.961Z,41.38
2022-08-05T11:59:54.249Z,40.71
2022-08-05T12:02:33.581Z,39.61
2022-08-05T12:05:19.912Z,39.06
2022-08-05T12:08:54.960Z,36.86
2022-08-05T12:11:41.761Z,35.83
2022-08-05T12:14:17.709Z,35.36
2022-08-05T12:16:58.373Z,35.09
2022-08-05T12:20:17.024Z,34.89
2022-08-05T12:22:49.172Z,35.51
2022-08-05T12:25:28.463Z,36.14
2022-08-05T12:28:41.818Z,36.03
2022-08-05T12:31:40.623Z,36.46
2022-08-05T12:34:32.343Z,36.08
2022-08-05T12:37:17.525Z,35.71
2022-08-05T12:46:03.529Z,32.48
2022-08-05T12:49:00.091Z,32.09
2022-08-05T12:52:14.006Z,31.91
2022-08-05T12:54:32.838Z,31.59
2022-08-05T12:57:19.300Z,31.48
2022-08-05T13:01:58.266Z,31.06
2022-08-05T13:02:50.867Z,31.80
2022-08-05T13:05:55.610Z,32.27
2022-08-05T13:08:32.628Z,33.63
2022-08-05T13:11:11.049Z,34.76
2022-08-05T13:14:04.725Z,36.10
2022-08-05T13:16:52.024Z,37.08
2022-08-05T13:19:51.950Z,37.63
2022-08-05T13:22:29.969Z,36.72
2022-08-05T13:26:04.076Z,35.75
2022-08-05T13:28:43.953Z,33.93
2022-08-05T13:31:34.152Z,33.55
2022-08-05T13:34:50.617Z,34.19
2022-08-05T13:37:35.796Z,35.26
2022-08-05T13:40:37.020Z,36.51
2022-08-05T13:43:44.561Z,38.21
2022-08-05T13:46:43.852Z,39.81
2022-08-05T13:49:20.266Z,41.82
2022-08-05T13:52:29.401Z,43.13
2022-08-05T13:55:09.792Z,44.21
2022-08-05T13:57:51.246Z,45.64
2022-08-05T14:00:36.506Z,45.10
2022-08-05T14:08:01.067Z,40.17
2022-08-05T14:10:35.572Z,37.88
2022-08-05T14:13:29.370Z,37.55
2022-08-05T14:16:11.204Z,38.02
2022-08-05T14:18:56.929Z,38.44
2022-08-05T14:22:08.962Z,37.44
2022-08-05T14:24:47.928Z,36.32
2022-08-05T14:27:51.102Z,36.37
2022-08-05T14:30:46.335Z,37.54
2022-08-05T14:33:22.689Z,38.81
2022-08-05T14:36:22.035Z,39.32
2022-08-05T14:39:23.085Z,39.56
2022-08-05T14:42:19.612Z,39.82
2022-08-05T14:44:51.679Z,40.32
2022-08-05T14:47:58.541Z,41.42
2022-08-05T14:50:28.044Z,42.17
2022-08-05T14:56:44.089Z,44.04
2022-08-05T14:59:21.216Z,45.04
2022-08-05T15:01:54.613Z,45.81
2022-08-05T15:09:51.742Z,47.61
2022-08-05T15:13:01.172Z,48.22
2022-08-05T15:20:15.635Z,44.24
2022-08-05T15:41:04.707Z,43.81
2022-08-05T15:43:45.993Z,44.69
2022-08-05T15:47:26.226Z,45.68
2022-08-05T15:57:19.953Z,46.53
2022-08-05T16:00:03.970Z,46.83
2022-08-05T16:03:24.402Z,46.91
2022-08-05T16:10:59.635Z,47.79
2022-08-05T16:14:21.822Z,47.75
2022-08-05T16:24:39.437Z,46.75
2022-08-05T16:28:00.340Z,46.77
2022-08-05T16:31:11.082Z,46.80
2022-08-05T16:34:18.901Z,47.48
2022-08-05T16:36:55.355Z,47.74
2022-08-05T16:40:05.219Z,48.30
2022-08-05T16:42:46.272Z,48.75
2022-08-05T16:46:04.415Z,48.73
2022-08-05T16:48:33.523Z,49.03
2022-08-05T16:55:05.828Z,48.85
2022-08-05T16:58:19.618Z,49.26
2022-08-05T17:01:10.546Z,49.26
2022-08-05T17:03:48.809Z,49.71
2022-08-05T17:06:24.721Z,49.85
2022-08-05T17:08:57.822Z,49.87
2022-08-05T17:11:48.323Z,49.72
2022-08-05T17:14:36.955Z,49.73
2022-08-05T17:17:15.095Z,49.98
2022-08-05T17:19:55.387Z,49.84
2022-08-05T17:22:55.458Z,49.63
2022-08-05T17:25:39.405Z,49.29
2022-08-05T17:28:17.536Z,49.04
2022-08-05T17:30:57.896Z,48.84
2022-08-05T17:33:38.895Z,48.63
2022-08-05T17:36:32.824Z,48.45
2022-08-05T17:39:08.111Z,48.38
2022-08-05T17:42:19.208Z,48.04
2022-08-05T17:44:55.533Z,47.49
2022-08-05T17:47:38.037Z,47.82
2022-08-05T17:50:28.934Z,47.24
2022-08-05T17:53:11.988Z,46.85
2022-08-05T17:55:49.590Z,47.00
2022-08-05T17:58:32.759Z,47.14
2022-08-05T18:01:09.635Z,47.09
2022-08-05T18:03:59.498Z,46.56
2022-08-05T18:06:37.710Z,46.31
2022-08-05T18:09:10.259Z,46.13
2022-08-05T18:12:14.857Z,46.41
2022-08-05T18:15:12.126Z,46.62
2022-08-05T18:18:00.312Z,46.75
2022-08-05T18:20:37.069Z,46.77
2022-08-05T18:23:12.249Z,46.77
2022-08-05T18:25:45.472Z,46.84
2022-08-05T18:28:22.052Z,47.35
2022-08-05T18:31:10.090Z,47.48
2022-08-05T18:33:51.503Z,47.70
2022-08-05T18:36:28.025Z,47.79
2022-08-05T18:43:37.887Z,47.97
2022-08-05T18:46:34.304Z,48.11
2022-08-05T18:52:06.034Z,48.02
2022-08-05T18:54:19.475Z,48.43
2022-08-05T18:56:58.352Z,48.55
2022-08-05T18:59:43.838Z,48.48
2022-08-05T19:02:30.086Z,48.96
2022-08-05T19:06:05.883Z,49.08
2022-08-05T19:08:05.951Z,49.42
2022-08-05T19:10:56.379Z,49.50
2022-08-05T19:13:29.437Z,50.02
2022-08-05T19:16:24.339Z,49.83
2022-08-05T19:19:01.396Z,50.12
2022-08-05T19:21:36.117Z,50.36
2022-08-05T19:24:12.764Z,50.57
2022-08-05T19:26:55.242Z,50.86
2022-08-05T19:29:36.029Z,50.82
2022-08-05T19:32:59.328Z,51.12
2022-08-05T19:39:10.376Z,51.70
2022-08-05T19:42:07.351Z,51.83
2022-08-05T19:44:50.286Z,52.02
2022-08-05T19:50:36.713Z,52.49
2022-08-05T19:53:14.588Z,52.51
2022-08-05T19:56:15.599Z,52.70
2022-08-05T19:58:54.518Z,52.81
2022-08-05T20:04:43.163Z,53.04
2022-08-05T20:07:38.907Z,53.12
2022-08-05T20:10:49.403Z,53.27
2022-08-05T20:13:30.341Z,53.51
2022-08-05T20:16:19.689Z,53.78
2022-08-05T20:23:51.113Z,54.15
2022-08-05T20:26:41.367Z,54.11
2022-08-05T20:29:41.952Z,54.13
2022-08-05T20:32:45.955Z,53.89
2022-08-05T20:35:52.167Z,53.72
2022-08-05T20:38:54.098Z,53.65
2022-08-05T20:41:54.340Z,53.24
2022-08-05T20:49:12.725Z,53.21
2022-08-05T20:52:02.099Z,52.91
2022-08-05T20:54:59.885Z,52.90
2022-08-05T20:58:16.014Z,53.04
2022-08-05T21:00:56.874Z,52.98
2022-08-05T21:04:27.338Z,53.04
2022-08-05T21:07:21.901Z,52.95
2022-08-05T21:10:17.260Z,53.03
2022-08-05T21:17:45.294Z,53.01
2022-08-05T21:24:13.374Z,53.11
2022-08-05T21:30:38.318Z,53.09
2022-08-05T21:33:49.385Z,53.05
2022-08-05T21:37:10.834Z,52.98
2022-08-05T21:40:35.720Z,53.12
2022-08-05T21:43:24.755Z,53.08
2022-08-05T21:46:18.524Z,53.01
2022-08-05T21:49:48.674Z,53.17
2022-08-05T21:52:22.059Z,53.23
2022-08-05T21:56:01.038Z,53.19
2022-08-05T21:58:24.915Z,53.28
2022-08-05T22:01:08.150Z,53.45
2022-08-05T22:07:40.343Z,53.53
2022-08-05T22:14:35.279Z,53.81
2022-08-05T22:17:48.739Z,53.67
2022-08-05T22:21:19.114Z,53.72
2022-08-05T22:24:40.114Z,53.89
2022-08-05T22:28:04.840Z,53.85
2022-08-05T22:30:56.250Z,54.23
2022-08-05T22:33:55.917Z,54.52
2022-08-05T22:36:26.645Z,54.87
2022-08-05T22:39:09.116Z,55.21
2022-08-05T22:42:09.898Z,55.31
2022-08-05T22:44:48.167Z,55.44
2022-08-05T22:47:30.703Z,55.70
2022-08-05T22:50:20.364Z,55.40
2022-08-05T22:53:00.314Z,55.44
2022-08-05T22:55:57.238Z,55.68
2022-08-05T22:58:40.146Z,56.08
2022-08-05T23:01:18.392Z,56.16
2022-08-05T23:03:58.332Z,56.48
2022-08-05T23:06:29.862Z,56.61
2022-08-05T23:09:52.530Z,56.61
2022-08-05T23:11:50.990Z,56.89
2022-08-05T23:14:32.188Z,57.13
2022-08-05T23:17:24.209Z,57.23
2022-08-05T23:20:03.874Z,57.42
2022-08-05T23:22:36.949Z,57.23
2022-08-05T23:25:08.547Z,57.17
2022-08-05T23:27:57.921Z,57.17
2022-08-05T23:30:31.399Z,57.09
2022-08-05T23:33:22.026Z,56.68
2022-08-05T23:35:56.685Z,56.23
2022-08-05T23:38:27.036Z,56.41
2022-08-05T23:40:57.350Z,54.92
2022-08-05T23:44:04.304Z,54.02
2022-08-05T23:46:19.971Z,53.49
2022-08-05T23:49:00.304Z,53.06
2022-08-05T23:51:51.658Z,52.30
2022-08-05T23:54:25.937Z,51.60
2022-08-05T23:57:03.527Z,51.03
